Historyczne dane pomiarowe

Dodano dane terminowe – wersja testowa.

Dane z okresu 1951-2019

Wersja bazy: 1.34 [2019-03-16, lista zmian], aktualizacja planowana na 2019-04-15

Dane meteo z obszaru Polski uzyskane na podstawie danych udostępnionych przez Instytut Meteorologii i Gospodarki Wodnej – Państwowy Instytut Badawczy.

 

Wybierz Datę:    

       

TemperaturaWilgotnośćWiatrCiśnienieOpadyŚniegCzas trwania zjawisk
 Stacja t tx tn tng RH VA  wxwx mslp ppp RRR   cm mm wxwxwxwxwxwxwx
1994-08-14 15.2 19.3 12.9--- 3.3 1.3---- 0.0------------
1994-08-13 16.8 22.5 14.1--- 7.0 1.3---- 5.8------------
1994-08-12 17.3 19.7 14.9--- 7.3 2.0---- 10.7------------
1994-08-11 18.6 22.4 15.1--- 6.7 1.3---- 29.0------------
1994-08-10 21.0 27.1 15.1--- 0.3 1.0---- 6.7------------
1994-08-09 18.5 24.1 17.1--- 8.0 1.0---- 5.2------------
1994-08-08 22.9 29.5 18.6--- 6.0 1.0---- 0.4------------
1994-08-07 25.5 31.9 20.3--- 4.7 1.0---- 0.0------------
1994-08-06 24.7 32.7 17.1--- 3.0 0.3---- 0.0------------
1994-08-05 24.0 30.7 17.9--- 0.0 0.7---- 0.0------------
1994-08-04 21.7 27.7 17.1--- 3.0 0.7---- 0.2------------
1994-08-03 23.9 33.7 20.3--- 4.0 1.0---- 7.6------------
1994-08-02 26.0 32.7 19.6--- 4.7 1.0---- 0.0------------
1994-08-01 27.3 34.9 22.3--- 2.3 0.7---- 0.0------------
1994-07-31 27.7 34.3 19.6--- 0.0 1.0---- 0.0------------
1994-07-30 26.6 34.1 19.6--- 0.0 0.7---- 0.0------------
1994-07-29 25.8 33.5 19.1--- 0.0 0.7---- 0.0------------
1994-07-28 25.7 32.7 18.9--- 0.3 0.3---- 0.0------------
1994-07-27 25.6 32.5 19.3--- 2.3 0.7---- 0.0------------
1994-07-26 25.4 32.2 18.6--- 0.3 0.7---- 0.0------------
1994-07-25 24.1 31.3 16.6--- 1.7 0.7---- 0.0------------
1994-07-24 23.3 29.7 16.1--- 0.0 1.0---- 0.0------------
1994-07-23 22.0 28.3 15.6--- 0.7 1.0---- 0.0------------
1994-07-22 22.1 28.7 14.1--- 0.0 0.7---- 0.0------------
1994-07-21 19.9 26.1 12.9--- 0.0 1.0---- 0.0------------
1994-07-20 18.3 23.5 13.1--- 1.7 1.3---- 0.0------------
1994-07-19 20.1 24.7 15.7--- 7.7 1.0---- 0.0------------
1994-07-18 20.8 26.7 16.7--- 5.0 1.0---- 2.8------------
1994-07-17 22.1 29.5 17.3--- 3.7 1.0---- 2.4------------
1994-07-16 22.7 30.1 17.7--- 3.0 0.7---- 0.0------------
1994-07-15 21.8 28.2 15.1--- 5.0 1.0---- 0.0------------
1994-07-14 22.8 28.7 17.1--- 5.7 1.0---- 0.0------------
1994-07-13 21.2 27.2 15.1--- 4.3 1.0---- 0.0------------
1994-07-12 20.0 25.5 15.6--- 6.3 1.3---- 0.0------------
1994-07-11 18.4 24.5 13.6--- 4.7 1.0---- 0.0------------
1994-07-10 15.8 21.5 12.0--- 6.7 1.3---- 1.8------------
1994-07-09 14.5 17.3 12.6--- 8.0 1.7---- 14.4------------
1994-07-08 16.4 21.3 14.1--- 4.7 1.3---- 0.5------------
1994-07-07 19.7 26.7 14.5--- 7.7 1.0---- 4.0------------
1994-07-06 19.4 25.9 14.6--- 2.0 1.0---- 0.0------------
1994-07-05 20.3 24.7 15.5--- 5.3 1.0---- 0.5------------
1994-07-04 21.8 28.7 14.1--- 0.0 0.3---- 0.0------------
1994-07-03 20.3 26.3 12.6--- 0.0 1.0---- 0.0------------
1994-07-02 19.3 24.7 13.1--- 0.0 0.7---- 0.0------------
1994-07-01 19.4 24.7 16.1--- 0.3 0.3---- 0.0------------
1994-06-30 22.8 26.2 20.9--- 5.3 1.0---- 0.0------------
1994-06-29 24.9 30.7 18.9--- 2.0 0.7---- 0.0------------
1994-06-28 25.3 30.4 20.1--- 2.3 0.7---- 0.0------------
1994-06-27 26.4 31.9 20.9--- 2.3 0.0---- 0.0------------
1994-06-26 21.9 30.4 12.7--- 0.0 0.7---- 0.0------------
1994-06-25 16.9 22.8 8.9--- 0.0 0.7---- 0.0------------
1994-06-24 15.4 20.2 9.9--- 0.0 2.0---- 0.0------------
1994-06-23 17.8 23.2 15.9--- 4.7 2.3---- 0.0------------
1994-06-22 19.7 25.8 11.5--- 3.3 1.3---- 0.0------------
1994-06-21 16.5 22.4 10.5--- 0.3 0.7---- 0.0------------
1994-06-20 17.4 21.8 13.9--- 4.3 1.3---- 0.0------------
1994-06-19 17.2 24.8 10.9--- 5.7 2.0---- 0.0------------
1994-06-18 13.7 19.7 7.8--- 5.0 2.0---- 9.4------------
1994-06-17 11.2 15.2 8.9--- 6.0 1.3---- 0.0------------
1994-06-16 13.7 16.5 9.4--- 6.7 1.7---- 2.5------------
251.8 ms

 

Źródłem pochodzenia danych jest Instytut Meteorologii i Gospodarki Wodnej – Państwowy Instytut Badawczy. Dane Instytutu Meteorologii i Gospodarki Wodnej – Państwowego Instytutu Badawczego zostały przetworzone.

Dane źródłowe można odnaleźć na stronie https://dane.imgw.pl